Time;durP1;ratioP1;P1;durP2;ratioP2;P2;SDS_P1;SDS_P2;PMS_P1;PMS_P2;Temp;Humidity;BMP_temperature;BMP_pressure;BME280_temperature;BME280_humidity;BME280_pressure;Samples;Min_cycle;Max_cycle;Signal;HPM_P1;HPM_P2
2021/07/09 00:01:38;;;;;;;11.67;10.60;;;19.80;99.90;;;;;;4993622;28;20636;-61
2021/07/09 00:04:04;;;;;;;12.77;11.67;;;19.80;99.90;;;;;;4994450;28;20414;-60
2021/07/09 00:06:29;;;;;;;11.80;10.90;;;19.80;99.90;;;;;;4993024;28;20434;-62
2021/07/09 00:08:55;;;;;;;13.40;12.30;;;19.80;99.90;;;;;;4994117;28;20180;-60
2021/07/09 00:11:21;;;;;;;13.67;12.27;;;19.80;99.90;;;;;;4993452;28;20183;-61
2021/07/09 00:13:47;;;;;;;12.70;11.60;;;19.80;99.90;;;;;;4994082;28;20527;-60
2021/07/09 00:16:17;;;;;;;12.60;11.50;;;19.70;99.90;;;;;;4994012;28;20411;-60
2021/07/09 00:18:44;;;;;;;12.53;11.43;;;19.60;99.90;;;;;;4993355;28;20457;-60
2021/07/09 00:21:10;;;;;;;11.80;10.80;;;19.60;99.90;;;;;;4993745;28;20517;-60
2021/07/09 00:23:36;;;;;;;11.43;10.53;;;19.60;99.90;;;;;;4993294;28;20550;-60
2021/07/09 00:26:02;;;;;;;12.47;11.37;;;19.60;99.90;;;;;;4993726;28;20180;-61
2021/07/09 00:28:28;;;;;;;11.60;10.63;;;19.60;99.90;;;;;;4993198;28;20772;-61
2021/07/09 00:30:54;;;;;;;11.57;10.30;;;19.60;99.90;;;;;;4993845;28;20171;-60
2021/07/09 00:33:20;;;;;;;11.60;10.40;;;19.60;99.90;;;;;;4993750;28;20230;-61
2021/07/09 00:35:45;;;;;;;9.87;9.00;;;19.60;99.90;;;;;;4993688;28;20184;-60
2021/07/09 00:38:11;;;;;;;9.83;8.93;;;19.70;99.90;;;;;;4993288;28;20462;-61
2021/07/09 00:40:37;;;;;;;9.93;9.13;;;19.70;99.90;;;;;;4993062;28;20226;-60
2021/07/09 00:43:03;;;;;;;10.90;9.90;;;19.70;99.90;;;;;;4993498;28;20299;-61
2021/07/09 00:45:29;;;;;;;11.23;9.73;;;19.70;99.90;;;;;;4993248;28;20226;-61
2021/07/09 00:47:55;;;;;;;10.20;9.40;;;19.80;99.90;;;;;;4993606;28;20802;-60
2021/07/09 00:50:21;;;;;;;10.10;9.20;;;19.80;99.90;;;;;;4993272;28;20192;-61
2021/07/09 00:52:47;;;;;;;11.43;10.47;;;19.80;99.90;;;;;;4993391;28;20809;-61
2021/07/09 00:55:14;;;;;;;10.40;9.50;;;19.80;99.90;;;;;;4993469;28;20437;-60
2021/07/09 00:57:44;;;;;;;11.90;10.90;;;19.70;99.90;;;;;;4992890;28;20239;-60
2021/07/09 01:00:12;;;;;;;11.60;10.60;;;19.80;99.90;;;;;;4993328;28;20481;-60
2021/07/09 01:02:38;;;;;;;11.67;10.77;;;19.80;99.90;;;;;;4992737;28;20410;-61
2021/07/09 01:05:07;;;;;;;11.13;10.13;;;19.70;99.90;;;;;;4975823;28;20470;-62
2021/07/09 01:07:33;;;;;;;13.53;12.27;;;19.70;99.90;;;;;;4973329;28;20431;-61
2021/07/09 01:09:58;;;;;;;11.97;10.97;;;19.70;99.90;;;;;;4973839;28;20518;-60
2021/07/09 01:12:25;;;;;;;12.07;11.00;;;19.60;99.90;;;;;;4972949;28;20455;-61
2021/07/09 01:14:51;;;;;;;11.80;10.80;;;19.60;99.90;;;;;;4973458;28;20176;-60
2021/07/09 01:17:17;;;;;;;11.47;10.47;;;19.60;99.90;;;;;;4972597;28;20819;-60
2021/07/09 01:19:42;;;;;;;11.80;10.77;;;19.60;99.90;;;;;;4972900;28;20417;-61
2021/07/09 01:22:09;;;;;;;12.50;11.40;;;19.60;99.90;;;;;;4992439;28;20571;-60
2021/07/09 01:24:38;;;;;;;12.00;11.00;;;19.60;99.90;;;;;;4992506;28;20186;-61
2021/07/09 01:27:06;;;;;;;10.87;9.90;;;19.60;99.90;;;;;;4992795;28;20423;-60
2021/07/09 01:29:31;;;;;;;11.87;10.77;;;19.60;99.90;;;;;;4992527;28;20447;-60
2021/07/09 01:31:58;;;;;;;12.10;11.00;;;19.60;99.90;;;;;;4993037;28;20435;-60
2021/07/09 01:34:25;;;;;;;13.03;11.70;;;19.60;99.90;;;;;;4992418;28;20172;-62
2021/07/09 01:36:51;;;;;;;12.23;11.13;;;19.60;99.90;;;;;;4992725;28;20485;-61
2021/07/09 01:39:18;;;;;;;12.63;11.43;;;19.60;99.90;;;;;;4992982;28;20907;-60
2021/07/09 01:41:44;;;;;;;11.97;10.97;;;19.60;99.90;;;;;;4992169;28;20919;-61
2021/07/09 01:44:10;;;;;;;12.90;11.80;;;19.60;99.90;;;;;;4992434;28;20480;-61
2021/07/09 01:46:37;;;;;;;12.63;11.53;;;19.70;99.90;;;;;;4992071;28;20414;-61
2021/07/09 01:49:03;;;;;;;13.53;12.43;;;19.60;99.90;;;;;;4992960;28;20172;-61
2021/07/09 01:51:29;;;;;;;13.27;12.07;;;19.60;99.90;;;;;;4992065;28;20466;-61
2021/07/09 01:53:55;;;;;;;13.33;12.10;;;19.60;99.90;;;;;;4992630;28;20497;-60
2021/07/09 01:56:20;;;;;;;13.40;12.00;;;19.60;99.90;;;;;;4998902;28;20949;-61
2021/07/09 01:58:46;;;;;;;12.93;11.73;;;19.60;99.90;;;;;;5011746;28;20588;-61
2021/07/09 02:01:12;;;;;;;13.50;12.10;;;19.60;99.90;;;;;;5012090;28;20171;-60
2021/07/09 02:03:37;;;;;;;12.50;11.40;;;19.60;99.90;;;;;;5011805;28;20230;-61
2021/07/09 02:06:03;;;;;;;13.30;12.20;;;19.60;99.90;;;;;;5012356;28;20325;-61
2021/07/09 02:08:29;;;;;;;12.63;11.63;;;19.60;99.90;;;;;;4993991;28;20254;-61
2021/07/09 02:10:55;;;;;;;13.17;11.77;;;19.60;99.90;;;;;;4992874;28;20639;-60
2021/07/09 02:13:20;;;;;;;13.23;12.13;;;19.50;99.90;;;;;;4992717;28;20441;-61
2021/07/09 02:15:47;;;;;;;12.43;11.23;;;19.50;99.90;;;;;;4992131;28;20183;-61
2021/07/09 02:18:15;;;;;;;12.77;11.70;;;19.50;99.90;;;;;;5007412;28;20289;-61
2021/07/09 02:20:41;;;;;;;13.87;12.67;;;19.50;99.90;;;;;;5011646;28;20481;-60
2021/07/09 02:23:09;;;;;;;12.03;10.90;;;19.50;99.90;;;;;;5012298;28;20496;-60
2021/07/09 02:25:37;;;;;;;12.90;11.80;;;19.60;99.90;;;;;;5013161;28;20442;-61
2021/07/09 02:28:03;;;;;;;14.03;12.83;;;19.60;99.90;;;;;;5015618;28;20422;-60
2021/07/09 02:30:30;;;;;;;13.80;12.60;;;19.60;99.90;;;;;;5015109;28;20829;-61
2021/07/09 02:32:56;;;;;;;14.10;12.97;;;19.60;99.90;;;;;;5003790;28;20423;-60
2021/07/09 02:35:25;;;;;;;14.40;13.10;;;19.60;99.90;;;;;;4995904;28;20489;-60
2021/07/09 02:37:51;;;;;;;15.13;13.73;;;19.60;99.90;;;;;;4995222;28;20450;-60
2021/07/09 02:40:21;;;;;;;14.90;13.67;;;19.60;99.90;;;;;;4995897;28;20411;-60
2021/07/09 02:42:49;;;;;;;15.23;13.93;;;19.60;99.90;;;;;;4995230;28;20414;-61
2021/07/09 02:45:15;;;;;;;15.27;13.87;;;19.60;99.90;;;;;;4995730;28;20573;-60
2021/07/09 02:47:42;;;;;;;14.63;13.37;;;19.60;99.90;;;;;;4995470;28;20426;-61
2021/07/09 02:50:11;;;;;;;14.90;13.60;;;19.50;99.90;;;;;;4995923;28;20518;-60
2021/07/09 02:52:37;;;;;;;16.00;14.50;;;19.60;99.90;;;;;;4994959;28;20771;-61
2021/07/09 02:55:09;;;;;;;14.47;13.27;;;19.50;99.90;;;;;;4995564;28;20494;-60
2021/07/09 02:57:35;;;;;;;14.70;13.40;;;19.50;99.90;;;;;;4989844;28;20482;-61
2021/07/09 03:00:04;;;;;;;14.20;13.00;;;19.50;99.90;;;;;;4995165;28;20518;-61
2021/07/09 03:02:30;;;;;;;15.03;13.63;;;19.60;99.90;;;;;;4993488;28;20430;-61
2021/07/09 03:04:55;;;;;;;14.70;13.37;;;19.60;99.90;;;;;;4995457;28;20415;-60
2021/07/09 03:07:21;;;;;;;14.30;13.00;;;19.50;99.90;;;;;;4995101;28;20184;-63
2021/07/09 03:09:47;;;;;;;14.60;13.30;;;19.60;99.90;;;;;;4994659;28;20596;-63
2021/07/09 03:12:12;;;;;;;14.30;13.10;;;19.60;99.90;;;;;;4994942;28;20551;-63
2021/07/09 03:14:40;;;;;;;15.73;14.40;;;19.60;99.90;;;;;;4994696;28;20192;-63
2021/07/09 03:17:05;;;;;;;15.63;14.23;;;19.60;99.90;;;;;;4995227;28;20207;-63
2021/07/09 03:19:31;;;;;;;15.50;14.20;;;19.60;99.90;;;;;;4994556;28;20929;-64
2021/07/09 03:21:57;;;;;;;16.17;14.73;;;19.60;99.90;;;;;;4995471;28;20183;-63
2021/07/09 03:24:22;;;;;;;16.33;14.83;;;19.50;99.90;;;;;;4995142;28;20631;-63
2021/07/09 03:26:48;;;;;;;15.93;14.43;;;19.60;99.90;;;;;;4993992;28;20235;-63
2021/07/09 03:29:14;;;;;;;16.83;15.33;;;19.60;99.90;;;;;;4994921;28;20180;-63
2021/07/09 03:31:39;;;;;;;17.37;15.77;;;19.60;99.90;;;;;;4994278;28;20217;-63
2021/07/09 03:34:05;;;;;;;18.17;16.47;;;19.60;99.90;;;;;;4994540;28;20175;-63
2021/07/09 03:36:31;;;;;;;16.10;14.70;;;19.50;99.90;;;;;;4994229;28;20180;-64
2021/07/09 03:38:58;;;;;;;18.10;16.50;;;19.60;99.90;;;;;;4994677;28;20292;-63
2021/07/09 03:41:25;;;;;;;19.10;16.90;;;19.60;99.90;;;;;;4994413;28;20461;-63
2021/07/09 03:43:52;;;;;;;17.83;16.17;;;19.60;99.90;;;;;;4994037;28;21010;-63
2021/07/09 03:46:17;;;;;;;18.07;16.37;;;19.60;99.90;;;;;;4994617;28;20415;-63
2021/07/09 03:48:43;;;;;;;21.60;19.70;;;19.50;99.90;;;;;;4993938;28;20406;-63
2021/07/09 03:51:09;;;;;;;18.90;16.87;;;19.60;99.90;;;;;;4994640;28;20191;-63
2021/07/09 03:53:35;;;;;;;16.70;15.00;;;19.60;99.90;;;;;;4993954;28;20200;-63
2021/07/09 03:56:01;;;;;;;17.23;15.70;;;19.60;99.90;;;;;;4993910;28;20282;-63
2021/07/09 03:58:27;;;;;;;18.03;16.23;;;19.60;99.90;;;;;;4994356;28;20541;-63
2021/07/09 04:00:53;;;;;;;16.40;14.70;;;19.60;99.90;;;;;;4993721;28;20847;-63
2021/07/09 04:03:19;;;;;;;15.83;14.43;;;19.60;99.90;;;;;;4994289;28;20182;-63
2021/07/09 04:05:45;;;;;;;20.10;18.30;;;19.60;99.90;;;;;;4992526;28;20415;-63
2021/07/09 04:08:10;;;;;;;17.90;15.70;;;19.60;99.90;;;;;;4993922;28;20182;-63
2021/07/09 04:10:37;;;;;;;16.80;15.10;;;19.60;99.90;;;;;;4993254;28;20258;-63
2021/07/09 04:13:03;;;;;;;18.13;16.10;;;19.60;99.90;;;;;;4994141;28;20523;-63
2021/07/09 04:15:28;;;;;;;19.90;18.10;;;19.60;99.90;;;;;;4994022;28;20414;-63
2021/07/09 04:17:54;;;;;;;19.90;16.90;;;19.60;99.90;;;;;;4993168;28;20458;-63
2021/07/09 04:20:20;;;;;;;19.50;17.37;;;19.60;99.90;;;;;;4993993;28;20176;-63
2021/07/09 04:22:46;;;;;;;24.70;22.30;;;19.60;99.90;;;;;;4993332;28;20175;-63
2021/07/09 04:25:12;;;;;;;23.70;21.00;;;19.60;99.90;;;;;;4993659;28;20238;-62
2021/07/09 04:27:39;;;;;;;22.00;19.87;;;19.60;99.90;;;;;;4993492;28;20689;-62
2021/07/09 04:30:07;;;;;;;23.10;20.87;;;19.60;99.90;;;;;;4993812;28;20768;-62
2021/07/09 04:32:32;;;;;;;19.37;17.30;;;19.60;99.90;;;;;;4993753;28;20403;-62
2021/07/09 04:34:58;;;;;;;20.50;18.40;;;19.70;99.90;;;;;;4992812;28;20477;-62
2021/07/09 04:37:24;;;;;;;21.07;19.17;;;19.60;99.90;;;;;;4993746;28;20632;-62
2021/07/09 04:39:49;;;;;;;21.07;18.80;;;19.70;99.90;;;;;;4993181;28;20183;-62
2021/07/09 04:42:15;;;;;;;20.07;18.17;;;19.70;99.90;;;;;;4993781;28;20180;-62
2021/07/09 04:44:41;;;;;;;22.57;20.20;;;19.70;99.90;;;;;;4992740;28;20199;-62
2021/07/09 04:47:07;;;;;;;22.50;20.40;;;19.70;99.90;;;;;;4992609;28;20190;-62
2021/07/09 04:49:33;;;;;;;25.13;20.80;;;19.70;99.90;;;;;;4993218;28;20419;-62
2021/07/09 04:51:59;;;;;;;23.83;21.43;;;19.70;99.90;;;;;;4992538;28;20694;-62
2021/07/09 04:54:24;;;;;;;27.30;23.43;;;19.70;99.90;;;;;;4993474;28;20176;-62
2021/07/09 04:56:50;;;;;;;24.57;22.17;;;19.70;99.90;;;;;;5002729;28;20462;-62
2021/07/09 04:59:16;;;;;;;24.30;21.80;;;19.70;99.90;;;;;;5013005;28;20240;-62
2021/07/09 05:01:42;;;;;;;26.23;23.50;;;19.80;99.90;;;;;;5007988;28;20183;-63
2021/07/09 05:04:08;;;;;;;26.03;23.43;;;19.80;99.90;;;;;;5012950;28;20202;-62
2021/07/09 05:06:34;;;;;;;26.77;23.97;;;19.80;99.90;;;;;;5007057;28;20505;-62
2021/07/09 05:09:01;;;;;;;26.17;23.43;;;19.80;99.90;;;;;;4992311;28;20907;-62
2021/07/09 05:11:27;;;;;;;25.33;22.73;;;19.80;99.90;;;;;;4993216;28;20423;-62
2021/07/09 05:13:52;;;;;;;26.87;24.23;;;19.70;99.90;;;;;;4992649;28;20418;-62
2021/07/09 05:16:19;;;;;;;27.43;24.63;;;19.70;99.90;;;;;;4993226;28;20179;-62
2021/07/09 05:18:44;;;;;;;25.10;22.17;;;19.70;99.90;;;;;;5007941;28;20199;-62
2021/07/09 05:21:10;;;;;;;27.33;24.70;;;19.70;99.90;;;;;;5011676;28;20422;-62
2021/07/09 05:23:36;;;;;;;26.77;24.00;;;19.80;99.90;;;;;;4973730;28;20632;-62
2021/07/09 05:26:01;;;;;;;25.23;22.53;;;19.80;99.90;;;;;;4973059;28;20190;-62
2021/07/09 05:28:27;;;;;;;26.47;23.83;;;19.80;99.90;;;;;;4973715;28;20181;-62
2021/07/09 05:30:55;;;;;;;27.17;24.57;;;19.80;99.90;;;;;;4986773;28;20197;-62
2021/07/09 05:33:20;;;;;;;27.83;24.93;;;19.80;99.90;;;;;;4999928;28;20195;-62
2021/07/09 05:35:46;;;;;;;27.93;25.20;;;19.90;99.90;;;;;;4992450;28;20407;-62
2021/07/09 05:38:12;;;;;;;26.77;24.27;;;19.90;99.90;;;;;;4973690;28;20204;-62
2021/07/09 05:40:38;;;;;;;26.90;24.20;;;19.90;99.90;;;;;;4973849;28;20215;-62
2021/07/09 05:43:04;;;;;;;27.57;24.77;;;20.00;99.90;;;;;;4956358;28;20469;-62
2021/07/09 05:45:30;;;;;;;26.43;23.83;;;20.00;99.90;;;;;;4973548;28;20450;-62
2021/07/09 05:47:56;;;;;;;29.67;25.10;;;20.00;99.90;;;;;;4972957;28;20223;-62
2021/07/09 05:50:22;;;;;;;29.23;26.10;;;20.00;99.90;;;;;;4983369;28;20179;-62
2021/07/09 05:52:50;;;;;;;28.10;25.10;;;20.00;99.90;;;;;;5012011;28;20801;-62
2021/07/09 05:55:16;;;;;;;27.97;25.13;;;20.00;99.90;;;;;;5012581;28;20172;-62
2021/07/09 05:57:42;;;;;;;25.70;22.93;;;20.00;99.90;;;;;;5011716;28;20499;-62
2021/07/09 06:00:10;;;;;;;28.47;25.50;;;20.00;99.90;;;;;;5013355;28;20194;-62
2021/07/09 06:02:36;;;;;;;27.73;25.03;;;20.00;99.90;;;;;;4998491;28;20184;-62
2021/07/09 06:05:03;;;;;;;26.97;24.37;;;20.00;99.90;;;;;;4995917;28;20415;-62
2021/07/09 06:07:29;;;;;;;26.90;24.00;;;20.10;99.90;;;;;;4996354;28;20423;-62
2021/07/09 06:09:55;;;;;;;28.20;25.40;;;20.10;99.90;;;;;;4995286;28;20433;-62
2021/07/09 06:12:20;;;;;;;24.50;21.90;;;20.10;99.90;;;;;;4996399;28;20184;-61
2021/07/09 06:14:46;;;;;;;27.47;24.50;;;20.10;99.90;;;;;;4995555;28;20176;-63
2021/07/09 06:17:12;;;;;;;26.20;23.50;;;20.20;99.90;;;;;;5000632;28;20253;-63
2021/07/09 06:19:38;;;;;;;27.43;24.53;;;20.30;99.90;;;;;;4985865;28;20774;-62
2021/07/09 06:22:03;;;;;;;27.00;24.20;;;20.50;99.90;;;;;;4995533;28;20254;-63
2021/07/09 06:24:29;;;;;;;27.97;24.97;;;20.60;99.90;;;;;;4977282;28;20188;-63
2021/07/09 06:26:55;;;;;;;27.17;24.37;;;20.70;99.90;;;;;;4976005;28;20180;-63
2021/07/09 06:29:21;;;;;;;26.37;23.87;;;20.80;99.90;;;;;;4978364;28;20555;-63
2021/07/09 06:31:47;;;;;;;24.73;22.23;;;20.90;99.90;;;;;;4993996;28;20501;-63
2021/07/09 06:34:12;;;;;;;24.00;21.40;;;21.00;99.90;;;;;;4994469;28;20172;-62
2021/07/09 06:36:38;;;;;;;24.57;22.27;;;21.00;99.90;;;;;;4995760;28;20180;-62
2021/07/09 06:39:04;;;;;;;26.30;23.70;;;21.10;99.90;;;;;;4977405;28;20258;-63
2021/07/09 06:41:30;;;;;;;24.87;22.20;;;21.20;99.90;;;;;;4995640;28;20238;-63
2021/07/09 06:43:57;;;;;;;25.37;22.87;;;21.30;99.90;;;;;;4995162;28;20411;-63
2021/07/09 06:46:23;;;;;;;22.53;20.37;;;21.30;99.90;;;;;;4995856;28;20188;-63
2021/07/09 06:48:49;;;;;;;27.07;24.30;;;21.40;99.90;;;;;;4995139;28;20418;-65
2021/07/09 06:51:15;;;;;;;26.43;23.73;;;21.40;99.90;;;;;;4995628;28;20434;-60
2021/07/09 06:53:40;;;;;;;27.40;24.60;;;21.30;99.90;;;;;;4995282;28;20632;-61
2021/07/09 06:56:06;;;;;;;27.23;24.50;;;21.20;99.90;;;;;;4994788;28;20216;-60
2021/07/09 06:58:32;;;;;;;26.70;24.13;;;21.10;99.90;;;;;;4995424;28;20695;-60
2021/07/09 07:00:58;;;;;;;28.77;25.67;;;21.00;99.90;;;;;;4994035;28;20435;-60
2021/07/09 07:03:24;;;;;;;27.97;25.20;;;20.90;99.90;;;;;;4995381;28;20542;-60
2021/07/09 07:05:50;;;;;;;28.90;25.90;;;20.90;99.90;;;;;;4994805;28;20255;-60
2021/07/09 07:08:23;;;;;;;27.60;24.70;;;20.80;99.90;;;;;;4976100;28;20189;-60
2021/07/09 07:10:51;;;;;;;25.20;22.53;;;20.70;99.90;;;;;;4974539;28;20252;-60
2021/07/09 07:13:21;;;;;;;25.43;22.90;;;20.70;99.90;;;;;;4975777;28;20416;-60
2021/07/09 07:15:47;;;;;;;25.30;22.80;;;20.60;99.90;;;;;;4975258;28;20430;-60
2021/07/09 07:18:13;;;;;;;23.40;21.17;;;20.60;99.90;;;;;;4988087;28;20545;-61
2021/07/09 07:20:41;;;;;;;21.43;19.47;;;20.60;99.90;;;;;;4994962;28;20518;-61
2021/07/09 07:23:08;;;;;;;24.70;22.30;;;20.50;99.90;;;;;;4994218;28;20415;-61
2021/07/09 07:25:35;;;;;;;24.57;22.10;;;20.50;99.90;;;;;;4994352;28;20426;-61
2021/07/09 07:28:01;;;;;;;23.23;21.00;;;20.50;99.90;;;;;;4994184;28;20474;-60
2021/07/09 07:30:28;;;;;;;25.30;22.20;;;20.40;99.90;;;;;;4994876;28;20442;-60
2021/07/09 07:32:54;;;;;;;26.43;22.47;;;20.40;99.90;;;;;;4993414;28;20443;-61
2021/07/09 07:35:20;;;;;;;22.87;20.60;;;20.40;99.90;;;;;;4994867;28;20506;-60
2021/07/09 07:37:46;;;;;;;23.40;21.00;;;20.40;99.90;;;;;;4994156;28;20516;-60
2021/07/09 07:40:12;;;;;;;22.10;19.80;;;20.40;99.90;;;;;;4977528;28;20424;-64
2021/07/09 07:42:38;;;;;;;26.87;24.30;;;20.50;99.90;;;;;;4974963;28;20176;-60
2021/07/09 07:45:04;;;;;;;22.40;20.30;;;20.40;99.90;;;;;;4982144;28;20864;-60
2021/07/09 07:47:30;;;;;;;24.80;22.20;;;20.40;99.90;;;;;;4994776;28;20191;-60
2021/07/09 07:49:56;;;;;;;23.87;21.47;;;20.40;99.90;;;;;;4993543;28;20930;-60
2021/07/09 07:52:22;;;;;;;23.73;21.17;;;20.40;99.90;;;;;;4994390;28;20423;-60
2021/07/09 07:54:48;;;;;;;21.13;19.13;;;20.40;99.90;;;;;;4993499;28;20437;-60
2021/07/09 07:57:14;;;;;;;22.93;20.53;;;20.40;99.90;;;;;;4993958;28;20671;-60
2021/07/09 07:59:41;;;;;;;21.50;19.33;;;20.40;99.90;;;;;;4994236;28;20196;-60
2021/07/09 08:02:08;;;;;;;22.77;20.43;;;20.40;99.90;;;;;;4992725;28;20190;-60
2021/07/09 08:04:34;;;;;;;21.97;19.83;;;20.40;99.90;;;;;;4994068;28;20437;-60
2021/07/09 08:07:00;;;;;;;22.70;20.23;;;20.50;99.90;;;;;;4993587;28;20513;-60
2021/07/09 08:09:26;;;;;;;22.47;20.33;;;20.50;99.90;;;;;;4994160;28;20887;-60
2021/07/09 08:11:52;;;;;;;21.83;19.53;;;20.50;99.90;;;;;;4993545;28;20172;-60
2021/07/09 08:14:19;;;;;;;25.20;20.50;;;20.50;99.90;;;;;;4993756;28;20435;-60
2021/07/09 08:16:50;;;;;;;21.63;19.57;;;20.50;99.90;;;;;;4993812;28;20832;-60
2021/07/09 08:19:17;;;;;;;21.27;19.27;;;20.50;99.90;;;;;;4994256;28;20403;-60
2021/07/09 08:21:43;;;;;;;24.73;20.30;;;20.50;99.90;;;;;;4993993;28;20419;-60
2021/07/09 08:24:08;;;;;;;21.20;18.80;;;20.50;99.90;;;;;;4993325;28;20419;-60
2021/07/09 08:26:34;;;;;;;24.70;20.40;;;20.50;99.90;;;;;;4993679;28;20609;-60
2021/07/09 08:29:00;;;;;;;20.20;18.20;;;20.60;99.90;;;;;;4993237;28;20180;-60
2021/07/09 08:31:25;;;;;;;22.47;20.30;;;20.60;99.90;;;;;;4993776;28;20214;-60
2021/07/09 08:33:51;;;;;;;22.13;20.03;;;20.70;99.90;;;;;;4993186;28;20258;-60
2021/07/09 08:36:17;;;;;;;18.83;17.00;;;20.70;99.90;;;;;;4993801;28;20176;-60
2021/07/09 08:38:43;;;;;;;20.13;18.13;;;20.80;99.90;;;;;;4993651;28;20215;-60
2021/07/09 08:41:12;;;;;;;20.90;18.73;;;20.80;99.90;;;;;;4992800;28;20428;-60
2021/07/09 08:43:38;;;;;;;20.33;18.43;;;20.90;99.90;;;;;;4993743;28;20190;-59
2021/07/09 08:46:04;;;;;;;20.90;19.10;;;20.90;99.90;;;;;;4993057;28;20503;-60
2021/07/09 08:48:30;;;;;;;19.80;17.90;;;21.00;99.90;;;;;;4993808;28;20715;-60
2021/07/09 08:51:00;;;;;;;21.67;19.70;;;21.10;99.90;;;;;;4992712;28;20207;-60
2021/07/09 08:53:26;;;;;;;19.60;17.73;;;21.10;99.90;;;;;;4993483;28;20179;-60
2021/07/09 08:55:52;;;;;;;21.00;18.90;;;21.30;99.90;;;;;;4994913;28;20522;-60
2021/07/09 08:58:17;;;;;;;21.90;19.70;;;21.40;99.90;;;;;;5013017;28;20544;-60
2021/07/09 09:00:45;;;;;;;22.30;20.10;;;21.50;99.90;;;;;;5012853;28;20183;-59
2021/07/09 09:03:16;;;;;;;21.77;19.30;;;21.50;99.90;;;;;;5012192;28;20581;-60
2021/07/09 09:05:43;;;;;;;19.53;17.57;;;21.60;99.90;;;;;;5013201;28;20433;-60
2021/07/09 09:08:10;;;;;;;19.47;17.67;;;21.70;99.90;;;;;;5012334;28;20425;-61
2021/07/09 09:10:42;;;;;;;19.90;18.00;;;21.60;99.90;;;;;;5012552;28;20438;-61
2021/07/09 09:13:15;;;;;;;19.50;17.50;;;21.70;99.90;;;;;;5012349;28;20410;-61
2021/07/09 09:15:43;;;;;;;19.17;17.60;;;21.80;99.90;;;;;;5012996;28;20433;-60
2021/07/09 09:18:22;;;;;;;20.63;18.50;;;21.90;99.90;;;;;;5012129;28;20470;-61
2021/07/09 09:20:59;;;;;;;20.80;19.00;;;21.90;99.90;;;;;;5012986;28;20801;-61
2021/07/09 09:23:27;;;;;;;19.93;18.03;;;22.00;99.90;;;;;;5012810;28;20401;-61
2021/07/09 09:25:54;;;;;;;19.43;15.97;;;22.10;99.90;;;;;;5011984;28;20905;-61
2021/07/09 09:28:20;;;;;;;20.23;18.33;;;22.30;99.90;;;;;;5012766;28;20410;-61
2021/07/09 09:30:51;;;;;;;17.07;15.50;;;22.40;99.90;;;;;;5012328;28;20467;-60
2021/07/09 09:33:17;;;;;;;17.60;15.97;;;22.60;99.90;;;;;;5012801;28;20175;-61
2021/07/09 09:35:52;;;;;;;17.07;15.57;;;22.80;99.90;;;;;;5016397;28;20422;-61
2021/07/09 09:38:24;;;;;;;18.23;16.37;;;22.90;99.90;;;;;;4999127;28;20905;-61
2021/07/09 09:40:50;;;;;;;17.67;16.03;;;22.90;99.90;;;;;;5016647;28;20386;-61
2021/07/09 09:43:20;;;;;;;18.20;16.60;;;23.00;99.90;;;;;;5015886;28;20489;-61
2021/07/09 09:46:00;;;;;;;16.90;15.40;;;23.00;99.90;;;;;;5016516;28;20471;-61
2021/07/09 09:48:55;;;;;;;16.60;15.20;;;23.10;99.90;;;;;;5016150;28;20737;-61
2021/07/09 09:51:36;;;;;;;15.03;13.83;;;23.20;99.90;;;;;;4999694;28;20426;-61
2021/07/09 09:54:05;;;;;;;15.90;14.60;;;23.30;99.90;;;;;;5015800;28;20872;-61
2021/07/09 09:56:37;;;;;;;15.23;14.03;;;23.50;99.90;;;;;;5016108;28;20453;-60
2021/07/09 09:59:12;;;;;;;18.77;17.07;;;23.60;99.90;;;;;;5015598;28;20620;-60
2021/07/09 10:01:37;;;;;;;17.67;16.27;;;23.80;99.90;;;;;;5016383;28;20816;-61
2021/07/09 10:04:03;;;;;;;15.73;14.33;;;23.90;99.60;;;;;;5015855;28;20508;-61
2021/07/09 10:06:29;;;;;;;14.83;13.40;;;24.00;98.70;;;;;;5016219;28;20418;-60
2021/07/09 10:08:57;;;;;;;14.17;12.87;;;24.10;98.70;;;;;;5015508;28;20321;-61
2021/07/09 10:11:24;;;;;;;14.77;13.30;;;24.10;98.50;;;;;;5016082;28;20179;-61
2021/07/09 10:13:50;;;;;;;15.57;14.27;;;24.30;98.80;;;;;;5015619;28;20414;-61
2021/07/09 10:16:17;;;;;;;13.43;12.40;;;24.40;98.60;;;;;;5015309;28;21136;-60
2021/07/09 10:18:43;;;;;;;13.53;12.37;;;24.40;96.80;;;;;;5015796;28;20210;-60
2021/07/09 10:21:09;;;;;;;15.13;13.63;;;24.50;97.50;;;;;;5015228;28;20402;-60
2021/07/09 10:23:35;;;;;;;13.80;12.70;;;24.60;98.00;;;;;;5015696;28;20509;-60
2021/07/09 10:26:01;;;;;;;12.93;11.93;;;24.70;97.70;;;;;;5014976;28;20182;-60
2021/07/09 10:28:27;;;;;;;14.40;13.10;;;24.90;98.30;;;;;;5015682;28;20175;-60
2021/07/09 10:30:54;;;;;;;12.27;11.37;;;25.00;96.40;;;;;;5015679;28;20964;-61
2021/07/09 10:33:31;;;;;;;10.50;9.60;;;25.20;96.00;;;;;;5014799;28;20233;-61
2021/07/09 10:35:58;;;;;;;12.97;12.07;;;25.40;95.80;;;;;;5015028;28;20444;-61
2021/07/09 10:38:35;;;;;;;11.30;10.40;;;25.60;95.70;;;;;;5015436;28;20453;-60
2021/07/09 10:41:19;;;;;;;12.80;11.90;;;25.80;96.10;;;;;;5014949;28;20745;-60
2021/07/09 10:44:17;;;;;;;11.63;10.87;;;25.90;95.10;;;;;;5015479;28;20476;-60
2021/07/09 10:46:44;;;;;;;10.70;9.90;;;26.10;93.50;;;;;;5014198;28;20801;-61
2021/07/09 10:49:11;;;;;;;13.77;12.77;;;26.10;93.10;;;;;;5014938;28;20859;-61
2021/07/09 10:51:49;;;;;;;10.90;10.07;;;26.20;93.00;;;;;;4997697;28;20818;-61
2021/07/09 10:54:29;;;;;;;11.13;10.33;;;26.30;92.80;;;;;;5014564;28;20418;-60
2021/07/09 10:57:20;;;;;;;10.90;10.00;;;26.40;91.90;;;;;;5015017;28;20521;-60
2021/07/09 11:00:23;;;;;;;11.53;10.63;;;26.50;92.30;;;;;;5015138;28;20466;-60
2021/07/09 11:03:04;;;;;;;12.30;11.30;;;26.50;91.90;;;;;;5015059;28;20481;-59
2021/07/09 11:05:42;;;;;;;11.63;10.70;;;26.40;90.30;;;;;;5015074;28;20413;-60
2021/07/09 11:08:38;;;;;;;15.10;14.20;;;26.30;90.60;;;;;;5014412;28;20944;-60
2021/07/09 11:11:09;;;;;;;11.40;10.60;;;26.20;90.20;;;;;;4985917;28;20517;-61
2021/07/09 11:13:40;;;;;;;13.57;12.67;;;26.30;91.90;;;;;;5014970;28;20914;-61
2021/07/09 11:16:25;;;;;;;10.73;9.83;;;26.40;91.30;;;;;;5014159;28;20501;-61
2021/07/09 11:18:59;;;;;;;11.70;10.90;;;26.40;90.30;;;;;;5014353;28;20968;-61
2021/07/09 11:21:31;;;;;;;9.93;9.30;;;26.30;89.90;;;;;;5014491;28;20417;-61
2021/07/09 11:24:03;;;;;;;10.93;10.23;;;26.30;90.30;;;;;;5014736;28;20413;-61
2021/07/09 11:26:30;;;;;;;12.20;11.10;;;26.30;90.40;;;;;;5014645;28;20448;-61
2021/07/09 11:28:57;;;;;;;12.50;11.43;;;26.30;90.80;;;;;;4997182;28;20844;-61
2021/07/09 11:31:53;;;;;;;10.63;9.83;;;26.40;90.60;;;;;;5013634;28;20924;-61
2021/07/09 11:34:20;;;;;;;9.07;8.53;;;26.50;90.30;;;;;;4997400;28;20732;-61
2021/07/09 11:36:50;;;;;;;10.00;9.30;;;26.70;91.30;;;;;;5014177;28;20857;-61
2021/07/09 11:39:30;;;;;;;9.07;8.50;;;26.80;90.60;;;;;;5013733;28;20458;-61
2021/07/09 11:42:11;;;;;;;9.43;8.73;;;26.80;87.30;;;;;;5014345;28;20406;-61
2021/07/09 11:44:45;;;;;;;8.70;8.10;;;26.80;88.40;;;;;;5014224;28;20969;-60
2021/07/09 11:47:29;;;;;;;9.17;8.57;;;26.90;89.80;;;;;;5013674;28;20417;-61
2021/07/09 11:50:00;;;;;;;13.83;8.57;;;26.90;87.70;;;;;;5014295;28;20482;-60
2021/07/09 11:52:27;;;;;;;8.57;7.97;;;27.00;86.80;;;;;;5014084;28;20417;-61
2021/07/09 11:54:55;;;;;;;8.87;8.17;;;27.10;86.20;;;;;;5013831;28;20438;-60
2021/07/09 11:57:23;;;;;;;7.80;7.30;;;27.00;83.30;;;;;;5012933;28;21027;-59
2021/07/09 11:59:51;;;;;;;7.27;6.77;;;26.90;85.70;;;;;;4996556;28;20802;-60
2021/07/09 12:02:18;;;;;;;6.90;6.40;;;26.80;84.90;;;;;;5013323;28;20468;-61
2021/07/09 12:04:51;;;;;;;8.10;7.50;;;26.80;85.40;;;;;;5013781;28;20434;-61
2021/07/09 12:07:22;;;;;;;7.60;7.10;;;26.50;84.90;;;;;;5013251;28;20422;-61
2021/07/09 12:09:57;;;;;;;8.07;7.50;;;26.30;86.30;;;;;;5013880;28;20483;-60
2021/07/09 12:12:24;;;;;;;7.73;7.03;;;26.10;88.40;;;;;;5013208;28;20394;-60
2021/07/09 12:14:53;;;;;;;8.60;8.00;;;25.90;88.70;;;;;;5013711;28;20402;-60
2021/07/09 12:17:19;;;;;;;7.97;7.40;;;25.70;89.70;;;;;;4995400;28;20461;-60
2021/07/09 12:19:55;;;;;;;7.43;6.73;;;25.60;89.40;;;;;;5013632;28;20504;-60
2021/07/09 12:22:31;;;;;;;8.27;7.67;;;25.40;89.60;;;;;;5013015;28;20481;-61
2021/07/09 12:25:01;;;;;;;9.10;8.40;;;25.20;89.50;;;;;;5013550;28;20398;-60
2021/07/09 12:27:31;;;;;;;7.80;7.30;;;24.90;90.20;;;;;;5013255;28;20434;-61
2021/07/09 12:29:58;;;;;;;8.27;7.77;;;24.90;90.70;;;;;;5013436;28;20464;-60
2021/07/09 12:32:24;;;;;;;8.37;7.77;;;24.80;91.10;;;;;;5012854;28;20434;-61